Time;durP1;ratioP1;P1;durP2;ratioP2;P2;SDS_P1;SDS_P2;PMS_P1;PMS_P2;Temp;Humidity;BMP_temperature;BMP_pressure;BME280_temperature;BME280_humidity;BME280_pressure;Samples;Min_cycle;Max_cycle;Signal;HPM_P1;HPM_P2
2022/10/10 00:01:32;;;;;;;4.57;2.45;;;10.80;71.20;;;;;;5093292;28;20024;-29
2022/10/10 00:03:58;;;;;;;4.93;2.50;;;10.80;71.30;;;;;;5093111;28;20024;-28
2022/10/10 00:06:25;;;;;;;3.92;2.63;;;10.70;71.30;;;;;;5093447;28;20031;-32
2022/10/10 00:08:50;;;;;;;5.15;2.75;;;10.70;71.50;;;;;;5093468;28;20530;-33
2022/10/10 00:11:18;;;;;;;4.47;2.60;;;10.60;71.50;;;;;;5093313;28;20099;-29
2022/10/10 00:13:44;;;;;;;3.65;2.28;;;10.60;71.70;;;;;;5093264;28;20024;-29
2022/10/10 00:16:10;;;;;;;2.55;2.33;;;10.60;71.90;;;;;;5093155;28;20073;-30
2022/10/10 00:18:36;;;;;;;2.95;2.15;;;10.50;72.00;;;;;;5093163;28;20028;-29
2022/10/10 00:21:02;;;;;;;3.63;2.60;;;10.50;72.10;;;;;;5093489;28;20028;-28
2022/10/10 00:23:27;;;;;;;4.75;2.60;;;10.40;72.20;;;;;;5093016;28;20047;-28
2022/10/10 00:25:53;;;;;;;3.95;2.33;;;10.40;72.90;;;;;;5092994;28;20415;-34
2022/10/10 00:28:19;;;;;;;4.80;2.42;;;10.30;72.30;;;;;;5093166;28;20027;-29
2022/10/10 00:30:44;;;;;;;6.63;2.45;;;10.30;72.40;;;;;;5093287;28;20387;-31
2022/10/10 00:33:11;;;;;;;4.65;2.60;;;10.30;72.50;;;;;;5092942;28;20121;-30
2022/10/10 00:35:36;;;;;;;4.30;2.85;;;10.30;72.60;;;;;;5092915;28;20024;-29
2022/10/10 00:38:03;;;;;;;4.00;2.40;;;10.30;72.70;;;;;;5092652;28;20715;-29
2022/10/10 00:40:28;;;;;;;3.55;2.20;;;10.20;72.80;;;;;;5092932;28;20028;-36
2022/10/10 00:42:54;;;;;;;3.00;2.25;;;10.20;72.90;;;;;;5092853;28;20094;-29
2022/10/10 00:45:38;;;;;;;3.15;2.40;;;10.20;72.90;;;;;;5092931;28;20345;-28
2022/10/10 00:48:18;;;;;;;3.67;2.45;;;10.20;73.10;;;;;;5092596;28;20028;-33
2022/10/10 00:50:51;;;;;;;3.95;2.20;;;10.10;73.10;;;;;;5092766;28;20090;-32
2022/10/10 00:53:21;;;;;;;4.00;2.40;;;10.10;73.20;;;;;;5092406;28;20024;-30
2022/10/10 00:55:47;;;;;;;5.28;2.40;;;10.10;73.20;;;;;;5092389;28;20109;-28
2022/10/10 00:58:14;;;;;;;2.80;2.25;;;10.10;73.30;;;;;;5092518;28;20444;-30
2022/10/10 01:00:40;;;;;;;2.83;2.10;;;10.10;73.40;;;;;;5092298;28;20468;-26
2022/10/10 01:03:06;;;;;;;3.40;2.30;;;10.10;73.40;;;;;;5092108;28;20061;-27
2022/10/10 01:05:32;;;;;;;3.70;2.30;;;10.10;73.40;;;;;;5091920;28;20036;-28
2022/10/10 01:07:59;;;;;;;5.38;2.15;;;10.10;73.50;;;;;;5091914;28;20054;-27
2022/10/10 01:10:24;;;;;;;3.63;2.45;;;10.10;73.50;;;;;;5092017;28;20027;-27
2022/10/10 01:13:02;;;;;;;3.92;2.55;;;10.20;73.60;;;;;;5091990;28;20020;-26
2022/10/10 01:15:47;;;;;;;4.15;2.47;;;10.20;73.60;;;;;;5091990;28;20016;-28
2022/10/10 01:18:26;;;;;;;3.83;2.20;;;10.20;73.70;;;;;;5091847;28;20039;-27
2022/10/10 01:21:14;;;;;;;5.18;2.60;;;10.20;73.60;;;;;;5091772;28;20024;-28
2022/10/10 01:24:05;;;;;;;4.03;2.30;;;10.20;73.60;;;;;;5091667;28;20020;-27
2022/10/10 01:27:06;;;;;;;4.00;2.15;;;10.20;73.50;;;;;;5091577;28;20095;-27
2022/10/10 01:29:46;;;;;;;4.75;2.40;;;10.20;73.50;;;;;;5091604;28;20051;-37
2022/10/10 01:32:33;;;;;;;4.22;2.47;;;10.20;73.50;;;;;;5091431;28;20020;-34
2022/10/10 01:35:35;;;;;;;3.70;2.10;;;10.20;73.50;;;;;;5091510;28;20031;-28
2022/10/10 01:38:06;;;;;;;3.92;2.20;;;10.20;73.60;;;;;;5091332;28;20051;-28
2022/10/10 01:40:56;;;;;;;4.50;2.45;;;10.20;73.50;;;;;;5091752;28;20103;-27
2022/10/10 01:43:24;;;;;;;6.90;2.20;;;10.20;73.60;;;;;;5091518;28;20024;-27
2022/10/10 01:45:51;;;;;;;3.15;2.30;;;10.20;73.60;;;;;;5091733;28;20012;-27
2022/10/10 01:48:30;;;;;;;4.18;2.22;;;10.20;73.70;;;;;;5091668;28;20062;-27
2022/10/10 01:51:08;;;;;;;4.90;2.50;;;10.20;74.30;;;;;;5091261;28;20038;-31
2022/10/10 01:53:36;;;;;;;3.00;2.45;;;10.20;73.70;;;;;;5091620;28;20031;-27
2022/10/10 01:56:33;;;;;;;2.88;2.58;;;10.20;73.70;;;;;;5091608;28;20039;-28
2022/10/10 01:59:19;;;;;;;4.80;2.70;;;10.20;73.70;;;;;;5091587;28;20383;-29
2022/10/10 02:02:09;;;;;;;4.05;2.50;;;10.20;73.70;;;;;;5091781;28;20349;-29
2022/10/10 02:04:49;;;;;;;4.13;2.60;;;10.20;73.70;;;;;;5073038;28;20249;-27
2022/10/10 02:07:25;;;;;;;2.90;2.30;;;10.20;73.80;;;;;;5091577;28;20123;-27
2022/10/10 02:09:52;;;;;;;3.45;2.38;;;10.20;73.70;;;;;;5091247;28;20119;-26
2022/10/10 02:12:19;;;;;;;4.85;2.40;;;10.20;73.70;;;;;;5091455;28;20459;-27
2022/10/10 02:14:52;;;;;;;4.05;2.60;;;10.20;73.80;;;;;;5091205;28;20028;-30
2022/10/10 02:17:18;;;;;;;;;;;10.20;73.90;;;;;;5091943;28;20031;-28
2022/10/10 02:19:49;;;;;;;3.78;2.40;;;10.20;73.90;;;;;;5091207;28;19912;-27
2022/10/10 02:22:16;;;;;;;3.35;1.98;;;10.10;73.80;;;;;;5091048;28;20066;-27
2022/10/10 02:24:42;;;;;;;3.88;2.40;;;10.10;73.80;;;;;;5091302;28;20027;-29
2022/10/10 02:27:34;;;;;;;3.38;2.70;;;10.10;73.90;;;;;;5091035;28;20020;-29
2022/10/10 02:30:02;;;;;;;4.18;2.70;;;10.10;74.00;;;;;;5063424;28;20506;-27
2022/10/10 02:32:35;;;;;;;3.40;2.50;;;10.10;74.10;;;;;;5091062;28;20016;-29
2022/10/10 02:35:07;;;;;;;5.13;2.40;;;10.10;74.10;;;;;;5090916;28;20156;-28
2022/10/10 02:37:34;;;;;;;4.72;2.70;;;10.10;74.20;;;;;;5091137;28;20016;-30
2022/10/10 02:40:03;;;;;;;4.45;2.90;;;10.10;74.20;;;;;;5091016;28;20024;-27
2022/10/10 02:42:29;;;;;;;3.72;2.58;;;10.10;74.30;;;;;;5089905;28;20057;-30
2022/10/10 02:44:56;;;;;;;4.40;2.60;;;10.10;74.30;;;;;;5090850;28;20024;-30
2022/10/10 02:47:22;;;;;;;3.72;2.28;;;10.10;74.30;;;;;;5090651;28;20024;-31
2022/10/10 02:49:48;;;;;;;3.25;2.40;;;10.10;74.30;;;;;;5090620;28;20078;-28
2022/10/10 02:52:15;;;;;;;3.17;2.47;;;10.10;74.40;;;;;;5090838;28;20069;-33
2022/10/10 02:54:41;;;;;;;4.32;2.90;;;10.00;74.40;;;;;;5090910;28;20105;-27
2022/10/10 02:57:06;;;;;;;3.08;2.45;;;10.00;74.40;;;;;;5090938;28;20024;-28
2022/10/10 02:59:32;;;;;;;4.55;2.55;;;10.00;74.50;;;;;;5090912;28;20036;-28
2022/10/10 03:01:58;;;;;;;6.07;2.70;;;10.00;74.50;;;;;;5093136;28;20022;-32
2022/10/10 03:04:23;;;;;;;4.20;2.90;;;10.00;74.70;;;;;;5094184;28;20115;-29
2022/10/10 03:06:49;;;;;;;2.88;2.53;;;10.00;74.70;;;;;;5094296;28;20016;-28
2022/10/10 03:09:14;;;;;;;4.53;2.55;;;10.00;74.70;;;;;;5094379;28;20446;-27
2022/10/10 03:11:40;;;;;;;5.65;2.38;;;10.00;74.70;;;;;;5094304;28;20028;-29
2022/10/10 03:14:06;;;;;;;4.53;2.88;;;10.00;74.80;;;;;;5094577;28;20032;-27
2022/10/10 03:16:31;;;;;;;3.83;2.60;;;10.00;74.80;;;;;;5094148;28;20112;-31
2022/10/10 03:18:57;;;;;;;4.30;2.65;;;9.90;74.80;;;;;;5094037;28;20031;-35
2022/10/10 03:21:22;;;;;;;3.17;2.45;;;10.00;74.90;;;;;;5094178;28;20074;-28
2022/10/10 03:23:48;;;;;;;5.10;2.53;;;10.00;75.00;;;;;;5093980;28;20099;-28
2022/10/10 03:26:14;;;;;;;3.13;2.17;;;9.90;74.90;;;;;;5094319;28;20020;-34
2022/10/10 03:28:39;;;;;;;4.30;2.65;;;9.90;75.00;;;;;;5093935;28;20028;-30
2022/10/10 03:31:05;;;;;;;2.65;2.38;;;9.90;75.00;;;;;;5094042;28;20016;-33
2022/10/10 03:33:30;;;;;;;4.35;2.30;;;10.00;75.10;;;;;;5093897;28;20099;-27
2022/10/10 03:35:56;;;;;;;4.28;3.00;;;9.90;75.10;;;;;;5093930;28;20024;-28
2022/10/10 03:38:21;;;;;;;3.25;2.55;;;9.90;75.10;;;;;;5093776;28;20429;-26
2022/10/10 03:40:47;;;;;;;5.07;2.78;;;9.90;75.20;;;;;;5093759;28;20498;-29
2022/10/10 03:43:13;;;;;;;3.17;2.58;;;9.90;75.20;;;;;;5093936;28;20042;-26
2022/10/10 03:45:43;;;;;;;4.50;2.63;;;9.90;75.20;;;;;;5093751;28;20027;-27
2022/10/10 03:48:09;;;;;;;2.85;2.30;;;9.90;75.20;;;;;;5093596;28;20028;-26
2022/10/10 03:50:35;;;;;;;4.03;2.58;;;9.90;75.20;;;;;;5093480;28;20016;-32
2022/10/10 03:53:01;;;;;;;3.88;2.60;;;9.90;75.30;;;;;;5093812;28;20028;-28
2022/10/10 03:55:26;;;;;;;5.35;2.72;;;9.90;75.30;;;;;;5093518;28;20026;-30
2022/10/10 03:57:52;;;;;;;4.40;2.60;;;9.90;75.40;;;;;;5093653;28;20028;-28
2022/10/10 04:00:18;;;;;;;3.05;2.47;;;9.80;75.40;;;;;;5093355;28;20020;-27
2022/10/10 04:02:43;;;;;;;5.03;2.55;;;9.80;75.40;;;;;;5093356;28;20028;-27
2022/10/10 04:05:09;;;;;;;6.78;2.67;;;9.80;75.50;;;;;;5093152;28;20237;-27
2022/10/10 04:07:35;;;;;;;3.40;2.70;;;9.80;75.60;;;;;;5093392;28;20401;-36
2022/10/10 04:10:01;;;;;;;4.18;3.22;;;9.80;75.60;;;;;;5093559;28;20044;-38
2022/10/10 04:12:26;;;;;;;4.72;2.58;;;9.70;75.60;;;;;;5092729;28;20028;-29
2022/10/10 04:14:52;;;;;;;3.67;2.83;;;9.70;75.70;;;;;;5093186;28;20100;-27
2022/10/10 04:17:17;;;;;;;4.55;2.50;;;9.70;75.80;;;;;;5093200;28;20545;-28
2022/10/10 04:19:43;;;;;;;5.32;2.75;;;9.70;75.80;;;;;;5093046;28;20032;-32
2022/10/10 04:22:08;;;;;;;5.40;2.67;;;9.70;75.80;;;;;;5092965;28;20020;-34
2022/10/10 04:24:34;;;;;;;4.22;2.70;;;9.70;75.90;;;;;;5093018;28;20024;-26
2022/10/10 04:27:00;;;;;;;3.97;2.63;;;9.60;75.90;;;;;;5093239;28;20028;-28
2022/10/10 04:29:25;;;;;;;3.53;2.67;;;9.60;75.90;;;;;;5092891;28;20059;-27
2022/10/10 04:31:51;;;;;;;4.32;2.80;;;9.60;76.00;;;;;;5092860;28;20028;-28
2022/10/10 04:34:16;;;;;;;3.20;2.83;;;9.60;76.10;;;;;;5093272;28;20032;-27
2022/10/10 04:36:42;;;;;;;3.83;2.90;;;9.60;76.10;;;;;;5093053;28;20072;-26
2022/10/10 04:39:08;;;;;;;4.22;3.03;;;9.50;76.10;;;;;;5074504;28;20028;-28
2022/10/10 04:41:34;;;;;;;4.75;3.15;;;9.50;76.30;;;;;;5092658;28;20020;-29
2022/10/10 04:43:59;;;;;;;4.03;3.00;;;9.40;76.30;;;;;;5092652;28;20078;-27
2022/10/10 04:46:25;;;;;;;5.25;3.30;;;9.40;76.40;;;;;;5092410;28;20043;-32
2022/10/10 04:48:50;;;;;;;5.85;3.47;;;9.40;76.50;;;;;;5092273;28;20028;-28
2022/10/10 04:51:17;;;;;;;3.90;2.88;;;9.40;76.50;;;;;;5092301;28;20020;-27
2022/10/10 04:53:43;;;;;;;5.72;3.22;;;9.40;76.60;;;;;;5092280;28;20117;-26
2022/10/10 04:56:08;;;;;;;6.47;3.00;;;9.30;76.60;;;;;;5092554;28;20024;-27
2022/10/10 04:58:34;;;;;;;3.63;2.75;;;9.30;76.70;;;;;;5092198;28;20031;-27
2022/10/10 05:00:59;;;;;;;6.13;3.40;;;9.30;76.80;;;;;;5092182;28;20030;-28
2022/10/10 05:03:25;;;;;;;5.32;3.25;;;9.20;76.90;;;;;;5092127;28;20475;-28
2022/10/10 05:05:52;;;;;;;5.03;2.90;;;9.20;77.00;;;;;;5092021;28;20447;-26
2022/10/10 05:08:18;;;;;;;4.30;2.90;;;9.20;77.10;;;;;;5092022;28;20034;-27
2022/10/10 05:10:44;;;;;;;5.50;3.42;;;9.20;77.10;;;;;;5092045;28;20031;-33
2022/10/10 05:13:12;;;;;;;5.40;3.00;;;9.20;77.20;;;;;;5091818;28;20073;-28
2022/10/10 05:15:38;;;;;;;5.50;3.17;;;9.10;77.20;;;;;;5091933;28;20058;-27
2022/10/10 05:18:04;;;;;;;4.47;3.25;;;9.10;77.30;;;;;;5091725;28;20020;-29
2022/10/10 05:20:30;;;;;;;4.50;3.30;;;9.10;77.30;;;;;;5091828;28;20020;-26
2022/10/10 05:22:56;;;;;;;5.97;2.95;;;9.10;77.50;;;;;;5091750;28;20020;-26
2022/10/10 05:25:21;;;;;;;4.93;3.00;;;9.00;77.40;;;;;;5090864;28;20024;-32
2022/10/10 05:27:47;;;;;;;4.43;3.20;;;9.00;77.50;;;;;;5091506;28;20360;-27
2022/10/10 05:30:13;;;;;;;5.60;3.08;;;9.00;77.50;;;;;;5091644;28;20024;-34
2022/10/10 05:32:39;;;;;;;4.38;3.00;;;8.90;77.50;;;;;;5091408;28;20020;-26
2022/10/10 05:35:06;;;;;;;4.95;2.90;;;8.90;77.60;;;;;;5091466;28;20104;-26
2022/10/10 05:37:32;;;;;;;6.38;3.17;;;8.90;77.70;;;;;;5091332;28;20027;-27
2022/10/10 05:39:58;;;;;;;4.15;3.13;;;8.90;77.80;;;;;;5091383;28;20024;-29
2022/10/10 05:42:23;;;;;;;5.65;3.40;;;8.80;77.70;;;;;;5091283;28;20378;-26
2022/10/10 05:44:49;;;;;;;5.00;3.20;;;8.80;77.90;;;;;;5091219;28;20444;-29
2022/10/10 05:47:15;;;;;;;5.43;2.90;;;8.80;77.90;;;;;;5091339;28;20028;-28
2022/10/10 05:49:41;;;;;;;3.25;2.88;;;8.80;77.90;;;;;;5091104;28;20103;-27
2022/10/10 05:52:07;;;;;;;5.80;2.85;;;8.80;78.00;;;;;;5091233;28;20423;-40
2022/10/10 05:54:32;;;;;;;5.88;3.30;;;8.80;78.10;;;;;;5091872;28;20099;-33
2022/10/10 05:56:58;;;;;;;5.53;3.47;;;8.80;78.10;;;;;;5073215;28;20020;-29
2022/10/10 05:59:24;;;;;;;5.45;3.25;;;8.80;78.10;;;;;;5091067;28;20031;-28
2022/10/10 06:01:49;;;;;;;7.22;3.60;;;8.80;78.10;;;;;;5091238;28;20016;-27
2022/10/10 06:04:15;;;;;;;6.65;3.25;;;8.90;78.10;;;;;;5091142;28;20064;-32
2022/10/10 06:06:40;;;;;;;7.78;3.30;;;8.80;78.10;;;;;;5091239;28;20024;-29
2022/10/10 06:09:06;;;;;;;5.57;3.38;;;8.90;78.10;;;;;;5091246;28;20092;-38
2022/10/10 06:11:31;;;;;;;4.32;3.03;;;8.90;78.10;;;;;;5091386;28;20035;-35
2022/10/10 06:13:57;;;;;;;4.57;3.30;;;8.90;78.20;;;;;;5090916;28;20032;-29
2022/10/10 06:16:24;;;;;;;7.30;3.65;;;8.90;78.20;;;;;;5090902;28;20024;-28
2022/10/10 06:18:50;;;;;;;6.22;3.58;;;8.80;78.20;;;;;;5090915;28;20020;-27
2022/10/10 06:21:17;;;;;;;8.23;3.85;;;8.90;78.30;;;;;;5090644;28;20036;-26
2022/10/10 06:23:43;;;;;;;5.90;3.60;;;8.90;78.40;;;;;;5090729;28;20017;-28
2022/10/10 06:26:09;;;;;;;7.63;4.70;;;8.90;78.30;;;;;;5072743;28;20020;-28
2022/10/10 06:28:35;;;;;;;5.35;3.58;;;8.90;78.40;;;;;;5090649;28;20024;-29
2022/10/10 06:31:07;;;;;;;5.97;3.45;;;9.00;78.40;;;;;;5090659;28;20036;-30
2022/10/10 06:33:33;;;;;;;14.98;3.88;;;9.00;78.40;;;;;;5090450;28;20020;-29
2022/10/10 06:36:04;;;;;;;5.05;3.53;;;9.00;78.40;;;;;;5091524;28;20075;-29
2022/10/10 06:38:29;;;;;;;6.97;3.70;;;9.10;78.40;;;;;;5094699;28;20042;-26
2022/10/10 06:40:59;;;;;;;4.93;3.35;;;9.10;78.40;;;;;;5095144;28;20372;-26
2022/10/10 06:43:25;;;;;;;6.07;3.75;;;9.10;78.30;;;;;;5094783;28;20020;-28
2022/10/10 06:45:50;;;;;;;5.20;3.40;;;9.10;78.30;;;;;;5094630;28;20034;-29
2022/10/10 06:48:16;;;;;;;8.95;3.95;;;9.20;78.40;;;;;;5094738;28;20020;-26
2022/10/10 06:50:42;;;;;;;7.70;3.80;;;9.20;78.30;;;;;;5094574;28;20035;-26
2022/10/10 06:53:07;;;;;;;6.15;3.55;;;9.30;78.30;;;;;;5094456;28;20360;-31
2022/10/10 06:55:33;;;;;;;5.88;3.88;;;9.30;78.30;;;;;;5094597;28;20068;-27
2022/10/10 06:57:58;;;;;;;6.75;3.38;;;9.30;78.20;;;;;;5094436;28;20024;-27
2022/10/10 07:00:24;;;;;;;8.25;4.15;;;9.40;78.20;;;;;;5094122;28;20024;-31
2022/10/10 07:02:50;;;;;;;5.70;3.75;;;9.40;78.20;;;;;;5094263;28;20024;-27
2022/10/10 07:05:17;;;;;;;6.85;3.70;;;9.50;78.10;;;;;;5094244;28;20040;-27
2022/10/10 07:07:44;;;;;;;5.57;3.70;;;9.60;78.10;;;;;;5094265;28;20012;-33
2022/10/10 07:10:12;;;;;;;6.90;3.70;;;9.60;78.10;;;;;;5094358;28;20031;-28
2022/10/10 07:12:40;;;;;;;9.80;3.97;;;9.70;78.10;;;;;;5094287;28;20472;-29
2022/10/10 07:15:06;;;;;;;5.97;3.85;;;9.80;78.10;;;;;;5094162;28;20032;-28
2022/10/10 07:17:32;;;;;;;11.57;3.95;;;9.80;78.00;;;;;;5094464;28;20103;-27
2022/10/10 07:19:58;;;;;;;5.70;4.00;;;9.90;78.00;;;;;;5094565;28;20124;-28
2022/10/10 07:22:23;;;;;;;6.60;3.80;;;10.00;78.00;;;;;;5094597;28;20032;-27
2022/10/10 07:24:49;;;;;;;7.65;3.67;;;10.10;77.90;;;;;;5094253;28;20046;-28
2022/10/10 07:27:15;;;;;;;6.53;3.70;;;10.20;77.90;;;;;;5094144;28;20020;-30
2022/10/10 07:29:40;;;;;;;5.70;3.55;;;10.30;77.90;;;;;;5093925;28;20467;-34
2022/10/10 07:32:06;;;;;;;6.10;3.55;;;10.40;77.80;;;;;;5093870;28;20177;-27
2022/10/10 07:34:34;;;;;;;7.57;3.60;;;10.40;77.60;;;;;;5094139;28;20030;-30
2022/10/10 07:36:59;;;;;;;6.30;3.60;;;10.60;77.60;;;;;;5093893;28;20016;-36
2022/10/10 07:39:25;;;;;;;8.77;3.80;;;10.70;77.60;;;;;;5093957;28;20036;-30
2022/10/10 07:41:51;;;;;;;5.20;3.63;;;10.70;77.40;;;;;;5093732;28;20020;-28
2022/10/10 07:44:17;;;;;;;5.82;3.90;;;10.80;77.40;;;;;;5093800;28;20066;-31
2022/10/10 07:46:43;;;;;;;6.35;4.00;;;10.80;77.40;;;;;;5093888;28;20031;-27
2022/10/10 07:49:09;;;;;;;8.15;3.83;;;10.90;77.30;;;;;;5092591;28;20103;-28
2022/10/10 07:51:35;;;;;;;5.85;3.72;;;11.00;77.30;;;;;;5093476;28;20055;-29
2022/10/10 07:54:01;;;;;;;5.47;4.00;;;11.10;77.30;;;;;;5093638;28;20029;-31
2022/10/10 07:56:27;;;;;;;6.72;4.03;;;11.10;77.20;;;;;;5093493;28;20452;-29
2022/10/10 07:58:52;;;;;;;5.50;3.92;;;11.30;77.30;;;;;;5093524;28;20024;-28
2022/10/10 08:01:18;;;;;;;6.10;4.10;;;11.30;77.20;;;;;;5093338;28;20377;-28
2022/10/10 08:03:45;;;;;;;6.18;3.83;;;11.40;77.70;;;;;;5093100;28;20024;-29
2022/10/10 08:06:14;;;;;;;4.95;3.88;;;11.50;77.20;;;;;;5093242;28;20059;-31
2022/10/10 08:08:40;;;;;;;7.65;4.10;;;11.50;77.20;;;;;;5093133;28;20056;-29
2022/10/10 08:11:08;;;;;;;6.68;4.07;;;11.60;77.10;;;;;;5093285;28;20051;-30
2022/10/10 08:13:34;;;;;;;6.40;3.65;;;11.80;77.10;;;;;;5093233;28;20030;-29
2022/10/10 08:16:01;;;;;;;5.45;3.80;;;11.90;77.10;;;;;;5093330;28;20056;-28
2022/10/10 08:18:27;;;;;;;5.90;3.70;;;11.90;77.00;;;;;;5093363;28;20107;-31
2022/10/10 08:21:07;;;;;;;5.95;3.90;;;12.00;77.00;;;;;;5093695;28;20023;-29
2022/10/10 08:23:33;;;;;;;8.10;4.22;;;12.10;76.90;;;;;;5092986;28;20032;-31
2022/10/10 08:26:01;;;;;;;6.65;3.95;;;12.20;76.90;;;;;;5092813;28;20447;-33
2022/10/10 08:28:28;;;;;;;5.32;3.63;;;12.20;76.90;;;;;;5093176;28;20032;-30
2022/10/10 08:30:54;;;;;;;4.75;3.50;;;12.20;76.90;;;;;;5092689;28;20020;-28
2022/10/10 08:33:20;;;;;;;8.10;4.10;;;12.20;76.90;;;;;;5092762;28;20020;-28
2022/10/10 08:35:46;;;;;;;6.60;3.88;;;12.30;77.10;;;;;;5092482;28;20478;-27
2022/10/10 08:38:12;;;;;;;7.07;3.50;;;12.30;77.00;;;;;;5092449;28;20027;-27
2022/10/10 08:40:52;;;;;;;5.95;3.67;;;12.30;77.00;;;;;;5092650;28;20022;-35
2022/10/10 08:43:25;;;;;;;8.63;4.00;;;12.30;77.00;;;;;;5092787;28;20032;-29
2022/10/10 08:45:53;;;;;;;5.47;3.60;;;12.40;77.00;;;;;;5092832;28;20026;-28
2022/10/10 08:48:24;;;;;;;5.97;3.58;;;12.40;77.10;;;;;;5092465;28;20020;-35
2022/10/10 08:51:00;;;;;;;5.40;3.92;;;12.40;77.00;;;;;;5092296;28;20039;-29
2022/10/10 08:53:37;;;;;;;5.20;4.15;;;12.50;77.10;;;;;;5092326;28;20020;-36
2022/10/10 08:56:05;;;;;;;5.43;4.07;;;12.50;77.10;;;;;;5092159;28;20020;-30
2022/10/10 08:58:41;;;;;;;7.10;3.95;;;12.60;77.00;;;;;;5073757;28;20028;-28
2022/10/10 09:01:13;;;;;;;8.48;3.80;;;12.70;77.00;;;;;;5092158;28;20336;-28
2022/10/10 09:03:44;;;;;;;7.13;4.25;;;12.70;76.80;;;;;;5092080;28;20095;-31
2022/10/10 09:06:42;;;;;;;4.90;3.53;;;12.80;76.90;;;;;;5091992;28;20048;-27
2022/10/10 09:09:33;;;;;;;6.90;4.05;;;12.90;76.80;;;;;;5092175;28;20399;-28
2022/10/10 09:12:18;;;;;;;6.65;3.83;;;13.00;76.70;;;;;;5092394;28;20107;-33
2022/10/10 09:15:03;;;;;;;7.30;3.95;;;13.10;76.60;;;;;;5092363;28;20035;-30
2022/10/10 09:17:38;;;;;;;8.20;3.70;;;13.10;76.50;;;;;;5092445;28;20483;-33
2022/10/10 09:20:26;;;;;;;7.78;3.70;;;13.20;76.60;;;;;;5092319;28;20024;-28
2022/10/10 09:23:07;;;;;;;5.75;3.88;;;13.30;76.50;;;;;;5092183;28;20069;-26
2022/10/10 09:25:39;;;;;;;5.60;3.75;;;13.30;76.30;;;;;;5091643;28;20475;-32
2022/10/10 09:28:57;;;;;;;6.25;3.90;;;13.40;76.20;;;;;;5091651;28;20016;-31
2022/10/10 09:31:45;;;;;;;6.07;3.50;;;13.60;76.10;;;;;;5087426;28;20423;-32
2022/10/10 09:34:18;;;;;;;8.43;3.80;;;13.70;75.90;;;;;;5073168;28;20026;-27
2022/10/10 09:36:44;;;;;;;8.10;3.97;;;13.80;75.80;;;;;;5091773;28;20081;-29
2022/10/10 09:39:47;;;;;;;7.43;4.10;;;13.90;75.70;;;;;;5091444;28;20031;-31
2022/10/10 09:42:16;;;;;;;6.18;4.00;;;14.00;75.60;;;;;;5091356;28;20028;-30
2022/10/10 09:44:42;;;;;;;5.55;3.42;;;14.20;75.40;;;;;;5091235;28;20131;-27
2022/10/10 09:47:14;;;;;;;4.68;3.65;;;14.30;75.20;;;;;;5091627;28;20024;-26
2022/10/10 09:49:40;;;;;;;7.35;3.90;;;14.40;75.10;;;;;;5091452;28;20471;-27
2022/10/10 09:52:27;;;;;;;6.32;3.70;;;14.50;75.00;;;;;;5091376;28;20081;-42
2022/10/10 09:55:13;;;;;;;6.15;3.63;;;14.60;74.90;;;;;;5073006;28;20057;-42
2022/10/10 09:57:41;;;;;;;5.40;3.33;;;14.70;74.80;;;;;;5091656;28;20413;-40
2022/10/10 10:00:25;;;;;;;5.30;3.50;;;14.80;74.70;;;;;;5091291;28;20031;-42
2022/10/10 10:03:09;;;;;;;;;;;14.80;74.50;;;;;;5091771;28;20032;-40
2022/10/10 10:05:34;;;;;;;5.75;3.42;;;14.90;74.40;;;;;;5091131;28;19981;-43
2022/10/10 10:08:00;;;;;;;7.25;3.42;;;15.00;74.90;;;;;;5091256;28;20024;-38
2022/10/10 10:10:28;;;;;;;7.18;3.85;;;15.00;74.30;;;;;;5090831;28;20434;-42
2022/10/10 10:12:55;;;;;;;6.50;3.70;;;15.10;74.00;;;;;;5091014;28;20119;-44
2022/10/10 10:15:27;;;;;;;6.88;3.72;;;15.20;73.90;;;;;;5091026;28;20020;-43
2022/10/10 10:18:29;;;;;;;6.07;3.70;;;15.30;73.80;;;;;;5091028;28;20434;-42
2022/10/10 10:21:06;;;;;;;8.32;3.90;;;15.40;73.70;;;;;;5028467;28;20487;-41
2022/10/10 10:23:34;;;;;;;6.10;3.78;;;15.50;73.50;;;;;;5083006;28;20032;-42
2022/10/10 10:26:05;;;;;;;5.15;3.30;;;15.60;73.40;;;;;;5090918;28;20027;-40
2022/10/10 10:28:39;;;;;;;6.00;3.58;;;15.60;73.30;;;;;;5090693;28;20028;-40
2022/10/10 10:31:12;;;;;;;6.45;4.05;;;15.70;73.20;;;;;;5090846;28;20077;-38
2022/10/10 10:33:38;;;;;;;;;;;15.70;73.10;;;;;;5091509;28;20483;-43
2022/10/10 10:36:37;;;;;;;6.28;3.22;;;15.70;73.10;;;;;;5090901;28;19911;-39
2022/10/10 10:39:06;;;;;;;5.75;3.70;;;15.80;73.30;;;;;;5091109;28;20029;-26
2022/10/10 10:41:55;;;;;;;9.73;3.70;;;15.80;73.10;;;;;;5091002;28;20052;-28
2022/10/10 10:44:49;;;;;;;5.65;3.95;;;15.80;73.10;;;;;;5090948;28;20016;-28
2022/10/10 10:47:22;;;;;;;6.82;3.67;;;15.80;73.00;;;;;;5085072;28;20115;-25
2022/10/10 10:50:22;;;;;;;5.22;3.42;;;15.80;73.10;;;;;;5090930;28;20103;-28
2022/10/10 10:53:18;;;;;;;8.65;4.20;;;15.90;73.10;;;;;;5090931;28;20117;-25
2022/10/10 10:56:02;;;;;;;4.93;3.50;;;15.90;73.00;;;;;;5091023;28;20028;-27
2022/10/10 10:58:54;;;;;;;5.60;3.38;;;16.00;72.90;;;;;;5090579;28;20028;-30
2022/10/10 11:01:30;;;;;;;5.35;3.83;;;16.10;72.80;;;;;;5090787;28;20107;-27
2022/10/10 11:04:14;;;;;;;6.50;3.38;;;16.10;72.70;;;;;;5072595;28;20028;-28
2022/10/10 11:07:08;;;;;;;7.18;3.42;;;16.20;72.70;;;;;;5090460;28;20047;-32
2022/10/10 11:09:52;;;;;;;6.30;3.25;;;16.30;72.60;;;;;;5035245;28;20041;-31
2022/10/10 11:12:53;;;;;;;5.57;3.60;;;16.30;72.50;;;;;;5090642;28;20020;-31
2022/10/10 11:16:06;;;;;;;4.95;3.65;;;16.40;72.40;;;;;;5069320;28;20032;-32
2022/10/10 11:19:22;;;;;;;5.22;3.50;;;16.50;72.30;;;;;;5084783;28;20127;-29
2022/10/10 11:22:19;;;;;;;7.10;3.75;;;16.50;72.10;;;;;;5078154;28;20542;-26
2022/10/10 11:25:11;;;;;;;9.73;3.70;;;16.50;72.10;;;;;;5081424;28;20036;-33
2022/10/10 11:28:05;;;;;;;6.95;3.85;;;16.60;72.10;;;;;;5070210;28;20044;-29
2022/10/10 11:30:35;;;;;;;4.82;3.47;;;16.80;71.90;;;;;;5090922;28;20228;-28
2022/10/10 11:33:03;;;;;;;10.27;3.80;;;16.90;71.80;;;;;;5093853;28;20110;-29
2022/10/10 11:35:34;;;;;;;6.43;3.78;;;17.00;71.50;;;;;;5093930;28;20024;-30
2022/10/10 11:38:18;;;;;;;5.43;3.70;;;17.20;71.40;;;;;;5093915;28;20050;-26
2022/10/10 11:40:49;;;;;;;7.53;3.60;;;17.30;71.00;;;;;;5093902;28;20024;-28
2022/10/10 11:43:27;;;;;;;9.75;4.13;;;17.40;70.90;;;;;;5094145;28;20047;-28
2022/10/10 11:45:59;;;;;;;5.60;3.58;;;17.50;70.40;;;;;;5093856;28;20039;-28
2022/10/10 11:48:44;;;;;;;5.72;4.05;;;17.40;70.50;;;;;;5093853;28;20012;-29
2022/10/10 11:51:44;;;;;;;8.18;3.70;;;17.40;70.70;;;;;;5093853;28;20020;-30
2022/10/10 11:54:34;;;;;;;4.28;3.15;;;17.30;70.70;;;;;;5069879;28;20036;-26
2022/10/10 11:57:07;;;;;;;5.38;3.15;;;17.30;70.80;;;;;;5093639;28;20020;-31
2022/10/10 11:59:37;;;;;;;5.70;3.38;;;17.40;70.90;;;;;;5093573;28;20016;-33
2022/10/10 12:02:25;;;;;;;6.60;3.65;;;17.40;70.90;;;;;;5093634;28;20108;-29
2022/10/10 12:04:51;;;;;;;6.50;3.58;;;17.40;70.80;;;;;;5075227;28;20044;-29
2022/10/10 12:07:40;;;;;;;7.00;3.50;;;17.50;70.90;;;;;;5093436;28;20505;-32
2022/10/10 12:10:13;;;;;;;7.43;3.47;;;17.60;70.80;;;;;;5092722;28;20059;-31
2022/10/10 12:12:43;;;;;;;4.70;3.40;;;17.70;70.60;;;;;;5093328;28;20077;-29
2022/10/10 12:15:16;;;;;;;7.22;3.72;;;17.80;70.50;;;;;;5075056;28;20124;-34
2022/10/10 12:17:45;;;;;;;5.07;3.08;;;17.90;70.30;;;;;;5093316;28;20733;-31
2022/10/10 12:20:30;;;;;;;7.45;3.80;;;18.00;70.20;;;;;;5093055;28;20111;-31
2022/10/10 12:23:06;;;;;;;5.03;3.40;;;18.10;70.10;;;;;;5093056;28;20029;-27
2022/10/10 12:25:41;;;;;;;5.70;3.85;;;18.20;70.10;;;;;;5093132;28;20437;-27
2022/10/10 12:28:12;;;;;;;5.50;3.60;;;18.20;69.90;;;;;;5092959;28;20031;-28
2022/10/10 12:31:04;;;;;;;9.45;3.75;;;18.30;69.80;;;;;;5092870;28;20425;-32
2022/10/10 12:33:32;;;;;;;7.80;4.20;;;18.20;69.80;;;;;;5068558;28;20032;-30
2022/10/10 12:36:20;;;;;;;7.82;3.60;;;18.10;70.00;;;;;;5092983;28;20016;-32
2022/10/10 12:39:09;;;;;;;7.43;3.20;;;18.00;70.30;;;;;;5092671;28;20210;-32
2022/10/10 12:41:41;;;;;;;5.70;3.40;;;17.90;70.50;;;;;;5047053;28;20032;-27
2022/10/10 12:44:41;;;;;;;4.45;2.97;;;17.80;70.80;;;;;;5092541;28;20098;-31
2022/10/10 12:47:15;;;;;;;4.22;3.42;;;17.70;71.00;;;;;;5092533;28;20483;-28
2022/10/10 12:49:48;;;;;;;5.90;3.08;;;17.60;71.20;;;;;;5092627;28;20141;-29
2022/10/10 12:52:42;;;;;;;7.95;3.63;;;17.60;71.50;;;;;;5092735;28;20032;-33
2022/10/10 12:55:22;;;;;;;8.05;3.53;;;17.50;71.70;;;;;;5092438;28;20482;-30
2022/10/10 12:57:51;;;;;;;6.32;3.58;;;17.40;71.90;;;;;;5092662;28;20169;-26
2022/10/10 13:00:20;;;;;;;8.93;3.42;;;17.40;72.20;;;;;;5092531;28;20050;-32
2022/10/10 13:03:01;;;;;;;4.97;3.03;;;17.30;72.40;;;;;;5092168;28;20039;-29
2022/10/10 13:05:33;;;;;;;8.05;3.45;;;17.20;72.60;;;;;;5092043;28;20040;-35
2022/10/10 13:08:05;;;;;;;8.13;3.40;;;17.20;72.90;;;;;;5092321;28;20105;-27
2022/10/10 13:10:31;;;;;;;8.30;3.40;;;17.10;73.30;;;;;;5092223;28;20270;-33
2022/10/10 13:13:00;;;;;;;5.13;3.38;;;17.10;73.70;;;;;;5092149;28;20024;-32
2022/10/10 13:15:25;;;;;;;5.47;3.70;;;17.10;74.00;;;;;;5092044;28;20022;-29